createdAt,value
2019-06-07T00:00:48.419Z,99.90
2019-06-07T00:03:27.605Z,99.90
2019-06-07T00:05:45.556Z,99.90
2019-06-07T00:08:22.504Z,99.90
2019-06-07T00:10:42.826Z,99.90
2019-06-07T00:13:12.888Z,99.90
2019-06-07T00:15:40.011Z,99.90
2019-06-07T00:18:11.136Z,99.90
2019-06-07T00:20:37.186Z,99.90
2019-06-07T00:23:05.766Z,99.90
2019-06-07T00:25:34.300Z,99.90
2019-06-07T00:28:02.846Z,99.90
2019-06-07T00:30:50.160Z,99.90
2019-06-07T00:33:00.407Z,99.90
2019-06-07T00:35:29.039Z,99.90
2019-06-07T00:37:57.754Z,99.90
2019-06-07T00:40:31.819Z,99.90
2019-06-07T00:42:55.127Z,99.90
2019-06-07T00:45:24.793Z,99.90
2019-06-07T00:47:52.242Z,99.90
2019-06-07T00:50:24.140Z,99.90
2019-06-07T00:55:20.631Z,99.90
2019-06-07T00:57:47.247Z,99.90
2019-06-07T01:00:18.347Z,99.90
2019-06-07T01:02:44.925Z,99.90
2019-06-07T01:05:15.945Z,99.90
2019-06-07T01:07:42.162Z,99.90
2019-06-07T01:10:13.670Z,99.90
2019-06-07T01:12:40.559Z,99.90
2019-06-07T01:15:09.171Z,99.90
2019-06-07T01:17:50.135Z,99.90
2019-06-07T01:20:06.752Z,99.90
2019-06-07T01:22:35.374Z,99.90
2019-06-07T01:25:04.011Z,99.90
2019-06-07T01:27:32.575Z,99.90
2019-06-07T01:30:01.385Z,99.90
2019-06-07T01:32:31.833Z,99.90
2019-06-07T01:34:58.957Z,99.90
2019-06-07T01:37:28.460Z,99.90
2019-06-07T01:39:56.152Z,99.90
2019-06-07T01:42:28.858Z,99.90
2019-06-07T01:44:53.292Z,99.90
2019-06-07T01:47:25.540Z,99.90
2019-06-07T01:49:50.363Z,99.90
2019-06-07T01:52:19.546Z,99.90
2019-06-07T01:54:58.050Z,99.90
2019-06-07T01:57:36.592Z,99.90
2019-06-07T01:59:44.662Z,99.90
2019-06-07T02:02:13.195Z,99.90
2019-06-07T02:04:41.925Z,99.90
2019-06-07T02:07:10.790Z,99.90
2019-06-07T02:09:39.337Z,99.90
2019-06-07T02:12:25.092Z,99.90
2019-06-07T02:14:36.475Z,99.90
2019-06-07T02:17:05.222Z,99.90
2019-06-07T02:19:33.824Z,99.90
2019-06-07T02:22:02.500Z,99.90
2019-06-07T02:24:34.616Z,99.90
2019-06-07T02:26:59.586Z,99.90
2019-06-07T02:29:31.417Z,99.90
2019-06-07T02:31:56.866Z,99.90
2019-06-07T02:34:28.122Z,99.90
2019-06-07T02:36:54.089Z,99.90
2019-06-07T02:39:23.982Z,99.90
2019-06-07T02:41:51.222Z,99.90
2019-06-07T02:44:19.774Z,99.90
2019-06-07T02:46:49.972Z,99.90
2019-06-07T02:49:17.107Z,99.90
2019-06-07T02:51:45.683Z,99.90
2019-06-07T02:54:14.519Z,99.90
2019-06-07T02:56:56.789Z,99.90
2019-06-07T02:59:11.920Z,99.90
2019-06-07T03:01:42.559Z,99.90
2019-06-07T03:04:09.267Z,99.90
2019-06-07T03:06:43.249Z,99.90
2019-06-07T03:09:08.608Z,99.90
2019-06-07T03:11:38.940Z,99.90
2019-06-07T03:14:05.926Z,99.90
2019-06-07T03:16:39.154Z,99.90
2019-06-07T03:19:11.009Z,99.90
2019-06-07T03:21:42.380Z,99.90
2019-06-07T03:24:10.945Z,99.90
2019-06-07T03:27:31.420Z,99.90
2019-06-07T03:29:08.436Z,99.90
2019-06-07T03:31:41.713Z,99.90
2019-06-07T03:34:05.627Z,99.90
2019-06-07T03:36:35.466Z,99.90
2019-06-07T03:39:03.179Z,99.90
2019-06-07T03:41:38.629Z,99.90
2019-06-07T03:44:00.550Z,99.90
2019-06-07T03:46:30.118Z,99.90
2019-06-07T03:48:57.663Z,99.90
2019-06-07T03:51:27.386Z,99.90
2019-06-07T03:53:54.890Z,99.90
2019-06-07T03:56:23.415Z,99.90
2019-06-07T03:58:51.974Z,99.90
2019-06-07T04:01:20.707Z,99.90
2019-06-07T04:03:51.793Z,99.90
2019-06-07T04:06:17.884Z,99.90
2019-06-07T04:08:46.467Z,99.90
2019-06-07T04:11:15.194Z,99.90
2019-06-07T04:13:43.857Z,99.90
2019-06-07T04:16:12.515Z,99.90
2019-06-07T04:18:42.508Z,99.90
2019-06-07T04:21:09.782Z,99.90
2019-06-07T04:23:44.925Z,99.90
2019-06-07T04:26:07.183Z,99.90
2019-06-07T04:29:30.229Z,99.90
2019-06-07T04:31:04.374Z,99.90
2019-06-07T04:33:37.066Z,99.90
2019-06-07T04:36:01.726Z,99.90
2019-06-07T04:38:32.689Z,99.90
2019-06-07T04:40:59.378Z,99.90
2019-06-07T04:43:31.037Z,99.90
2019-06-07T04:45:56.650Z,99.90
2019-06-07T04:48:25.270Z,99.90
2019-06-07T04:50:53.891Z,99.90
2019-06-07T04:53:22.426Z,99.90
2019-06-07T04:55:50.975Z,99.90
2019-06-07T04:58:19.563Z,99.90
2019-06-07T05:00:54.129Z,99.90
2019-06-07T05:03:16.833Z,99.90
2019-06-07T05:05:45.358Z,99.90
2019-06-07T05:08:27.580Z,99.90
2019-06-07T05:10:43.887Z,99.90
2019-06-07T05:13:11.291Z,99.90
2019-06-07T05:15:42.040Z,99.90
2019-06-07T05:18:08.427Z,99.90
2019-06-07T05:20:38.546Z,99.90
2019-06-07T05:23:05.603Z,99.90
2019-06-07T05:25:36.468Z,99.90
2019-06-07T05:28:03.108Z,99.90
2019-06-07T05:31:01.929Z,99.90
2019-06-07T05:33:02.412Z,99.90
2019-06-07T05:35:31.223Z,99.90
2019-06-07T05:37:59.834Z,99.90
2019-06-07T05:40:34.933Z,99.90
2019-06-07T05:43:02.971Z,99.90
2019-06-07T05:45:37.643Z,99.90
2019-06-07T05:48:02.683Z,99.90
2019-06-07T05:50:42.619Z,99.90
2019-06-07T05:52:59.195Z,99.90
2019-06-07T05:55:27.933Z,99.90
2019-06-07T05:57:56.508Z,99.90
2019-06-07T06:00:25.223Z,99.90
2019-06-07T06:03:04.825Z,99.90
2019-06-07T06:05:33.689Z,99.90
2019-06-07T06:07:51.135Z,99.90
2019-06-07T06:10:19.618Z,99.90
2019-06-07T06:12:51.724Z,99.90
2019-06-07T06:15:16.850Z,99.90
2019-06-07T06:17:48.939Z,99.90
2019-06-07T06:20:14.247Z,99.90
2019-06-07T06:22:44.807Z,99.90
2019-06-07T06:30:09.478Z,99.90
2019-06-07T06:32:49.294Z,99.90
2019-06-07T06:35:07.055Z,99.90
2019-06-07T06:37:38.038Z,99.90
2019-06-07T06:40:05.510Z,99.90
2019-06-07T06:42:34.691Z,99.90
2019-06-07T06:45:12.631Z,99.90
2019-06-07T06:47:43.143Z,99.90
2019-06-07T06:50:09.838Z,99.90
2019-06-07T06:52:42.327Z,99.90
2019-06-07T06:55:07.184Z,99.90
2019-06-07T06:57:35.726Z,99.90
2019-06-07T07:00:05.299Z,99.90
2019-06-07T07:02:33.841Z,99.90
2019-06-07T07:05:02.475Z,99.90
2019-06-07T07:07:31.121Z,99.90
2019-06-07T07:10:03.155Z,99.90
2019-06-07T07:12:31.422Z,99.90
2019-06-07T07:15:00.073Z,99.90
2019-06-07T07:17:47.630Z,99.90
2019-06-07T07:19:57.209Z,99.90
2019-06-07T07:22:25.730Z,99.90
2019-06-07T07:24:54.949Z,99.90
2019-06-07T07:27:23.127Z,99.90
2019-06-07T07:30:10.187Z,99.90
2019-06-07T07:32:20.357Z,99.90
2019-06-07T07:34:51.785Z,99.90
2019-06-07T07:37:17.589Z,99.90
2019-06-07T07:39:48.597Z,99.90
2019-06-07T07:42:21.124Z,99.90
2019-06-07T07:44:45.024Z,99.90
2019-06-07T07:47:12.441Z,99.90
2019-06-07T07:49:41.041Z,99.90
2019-06-07T07:52:09.603Z,99.90
2019-06-07T07:54:38.172Z,99.90
2019-06-07T07:57:06.743Z,99.90
2019-06-07T07:59:42.233Z,99.90
2019-06-07T08:02:04.055Z,99.90
2019-06-07T08:05:12.750Z,99.80
2019-06-07T08:07:01.600Z,98.70
2019-06-07T08:09:30.204Z,97.10
2019-06-07T08:12:01.934Z,96.60
2019-06-07T08:14:27.283Z,95.50
2019-06-07T08:16:57.892Z,93.90
2019-06-07T08:19:24.374Z,92.60
2019-06-07T08:21:53.104Z,92.50
2019-06-07T08:24:21.493Z,92.20
2019-06-07T08:27:10.487Z,92.20
2019-06-07T08:29:18.763Z,91.00
2019-06-07T08:31:48.298Z,91.20
2019-06-07T08:34:15.914Z,90.60
2019-06-07T08:36:44.429Z,89.10
2019-06-07T08:39:13.111Z,88.20
2019-06-07T08:41:53.814Z,89.30
2019-06-07T08:44:23.379Z,90.70
2019-06-07T08:46:39.272Z,91.50
2019-06-07T08:49:07.943Z,90.00
2019-06-07T08:51:36.475Z,90.20
2019-06-07T08:54:21.489Z,90.20
2019-06-07T08:56:33.630Z,91.20
2019-06-07T08:59:10.731Z,90.80
2019-06-07T09:01:30.758Z,91.40
2019-06-07T09:04:02.615Z,90.60
2019-06-07T09:07:01.767Z,88.50
2019-06-07T09:09:00.276Z,88.90
2019-06-07T09:11:25.127Z,88.70
2019-06-07T09:13:54.481Z,90.10
2019-06-07T09:16:22.365Z,83.80
2019-06-07T09:18:50.947Z,84.90
2019-06-07T09:21:19.880Z,85.70
2019-06-07T09:23:48.430Z,84.40
2019-06-07T09:26:18.956Z,83.90
2019-06-07T09:28:45.667Z,83.70
2019-06-07T09:31:14.237Z,84.90
2019-06-07T09:33:42.792Z,83.10
2019-06-07T09:36:13.178Z,83.90
2019-06-07T09:38:39.973Z,83.20
2019-06-07T09:41:09.788Z,81.90
2019-06-07T09:46:12.940Z,82.30
2019-06-07T09:49:09.948Z,82.80
2019-06-07T09:51:09.689Z,83.70
2019-06-07T09:53:32.007Z,85.20
2019-06-07T09:56:03.573Z,86.80
2019-06-07T10:01:02.073Z,86.70
2019-06-07T10:03:26.539Z,85.60
2019-06-07T10:05:55.049Z,85.50
2019-06-07T10:09:42.295Z,86.50
2019-06-07T10:10:52.163Z,87.20
2019-06-07T10:13:20.710Z,86.70
2019-06-07T10:15:49.452Z,87.10
2019-06-07T10:18:18.015Z,86.10
2019-06-07T10:20:46.571Z,86.60
2019-06-07T10:23:15.182Z,87.30
2019-06-07T10:25:43.880Z,86.60
2019-06-07T10:28:12.280Z,86.80
2019-06-07T10:30:40.854Z,87.60
2019-06-07T10:33:10.472Z,88.80
2019-06-07T10:35:38.309Z,88.80
2019-06-07T10:38:06.940Z,87.20
2019-06-07T10:40:35.646Z,87.60
2019-06-07T10:43:05.053Z,88.40
2019-06-07T10:45:33.376Z,88.10
2019-06-07T10:48:03.450Z,90.60
2019-06-07T10:50:31.008Z,91.80
2019-06-07T10:52:59.544Z,92.10
2019-06-07T10:55:28.094Z,91.60
2019-06-07T10:57:56.629Z,92.60
2019-06-07T11:00:25.522Z,93.60
2019-06-07T11:02:55.197Z,92.20
2019-06-07T11:05:22.659Z,92.60
2019-06-07T11:07:51.668Z,92.60
2019-06-07T11:10:20.452Z,92.90
2019-06-07T11:12:48.719Z,93.10
2019-06-07T11:15:17.308Z,93.70
2019-06-07T11:17:45.827Z,94.10
2019-06-07T11:20:14.534Z,94.80
2019-06-07T11:22:43.027Z,95.80
2019-06-07T11:25:12.841Z,95.90
2019-06-07T11:27:40.287Z,96.60
2019-06-07T11:30:10.342Z,96.00
2019-06-07T11:32:37.485Z,96.50
2019-06-07T11:35:06.398Z,96.60
2019-06-07T11:37:34.783Z,97.30
2019-06-07T11:40:03.575Z,96.50
2019-06-07T11:42:32.255Z,96.20
2019-06-07T11:45:00.970Z,96.30
2019-06-07T11:47:35.527Z,96.50
2019-06-07T11:50:04.722Z,95.80
2019-06-07T11:52:33.462Z,95.70
2019-06-07T11:55:02.003Z,95.50
2019-06-07T11:57:30.531Z,96.40
2019-06-07T11:59:59.066Z,95.80
2019-06-07T12:02:27.603Z,96.80
2019-06-07T12:04:56.138Z,95.20
2019-06-07T12:07:24.664Z,95.50
2019-06-07T12:09:56.696Z,94.20
2019-06-07T12:12:21.782Z,94.80
2019-06-07T12:14:50.374Z,95.40
2019-06-07T12:17:19.592Z,95.70
2019-06-07T12:19:47.763Z,96.20
2019-06-07T12:22:16.347Z,95.20
2019-06-07T12:24:44.864Z,95.00
2019-06-07T12:27:14.600Z,96.10
2019-06-07T12:29:41.994Z,95.80
2019-06-07T12:32:11.212Z,95.30
2019-06-07T12:34:39.264Z,93.50
2019-06-07T12:37:07.862Z,93.60
2019-06-07T12:39:36.406Z,93.60
2019-06-07T12:42:05.017Z,93.90
2019-06-07T12:44:33.583Z,94.10
2019-06-07T12:47:02.127Z,93.50
2019-06-07T12:49:30.709Z,94.30
2019-06-07T12:51:59.214Z,94.40
2019-06-07T12:54:27.973Z,94.60
2019-06-07T12:56:56.499Z,95.50
2019-06-07T12:59:25.066Z,95.60
2019-06-07T13:01:53.578Z,96.20
2019-06-07T13:04:22.647Z,95.80
2019-06-07T13:06:51.153Z,95.70
2019-06-07T13:09:19.946Z,97.10
2019-06-07T13:11:48.302Z,96.80
2019-06-07T13:14:17.780Z,97.50
2019-06-07T13:16:45.402Z,96.80
2019-06-07T13:19:13.937Z,97.40
2019-06-07T13:21:42.473Z,97.20
2019-06-07T13:24:11.110Z,95.80
2019-06-07T13:26:39.834Z,95.80
2019-06-07T13:29:08.518Z,95.80
2019-06-07T13:31:37.063Z,95.70
2019-06-07T13:34:05.586Z,95.60
2019-06-07T13:36:34.255Z,96.30
2019-06-07T13:39:02.839Z,96.50
2019-06-07T13:41:41.810Z,96.70
2019-06-07T13:43:59.923Z,96.90
2019-06-07T13:46:28.455Z,96.70
2019-06-07T13:48:57.068Z,96.70
2019-06-07T13:51:26.945Z,96.50
2019-06-07T13:53:54.180Z,96.50
2019-06-07T13:56:23.958Z,97.10
2019-06-07T13:58:51.931Z,96.80
2019-06-07T14:01:20.492Z,97.30
2019-06-07T14:03:49.005Z,97.00
2019-06-07T14:06:18.820Z,96.50
2019-06-07T14:08:46.215Z,95.90
2019-06-07T14:11:14.934Z,96.20
2019-06-07T14:13:43.464Z,96.00
2019-06-07T14:16:12.035Z,96.70
2019-06-07T14:18:40.627Z,97.80
2019-06-07T14:21:09.338Z,98.40
2019-06-07T14:23:47.996Z,97.70
2019-06-07T14:26:06.486Z,98.10
2019-06-07T14:28:35.091Z,97.90
2019-06-07T14:31:03.643Z,97.80
2019-06-07T14:33:33.690Z,98.30
2019-06-07T14:36:00.927Z,98.10
2019-06-07T14:38:33.363Z,98.10
2019-06-07T14:40:58.238Z,97.50
2019-06-07T14:43:27.609Z,97.50
2019-06-07T14:45:55.506Z,97.80
2019-06-07T14:48:24.011Z,97.90
2019-06-07T14:50:52.539Z,97.30
2019-06-07T14:53:21.308Z,97.10
2019-06-07T14:55:49.840Z,97.10
2019-06-07T14:58:18.951Z,96.80
2019-06-07T15:00:47.700Z,97.10
2019-06-07T15:03:16.264Z,96.50
2019-06-07T15:05:44.811Z,96.90
2019-06-07T15:08:13.495Z,97.00
2019-06-07T15:10:42.063Z,97.00
2019-06-07T15:13:10.624Z,97.30
2019-06-07T15:15:39.228Z,97.60
2019-06-07T15:18:07.778Z,97.60
2019-06-07T15:20:36.459Z,97.90
2019-06-07T15:23:04.869Z,97.70
2019-06-07T15:25:33.630Z,97.90
2019-06-07T15:28:02.138Z,98.40
2019-06-07T15:30:31.620Z,97.90
2019-06-07T15:32:59.952Z,97.50
2019-06-07T15:35:28.115Z,97.40
2019-06-07T15:37:56.369Z,97.60
2019-06-07T15:40:25.126Z,97.60
2019-06-07T15:42:53.634Z,97.80
2019-06-07T15:45:22.505Z,98.00
2019-06-07T15:47:51.059Z,98.20
2019-06-07T15:50:19.687Z,98.30
2019-06-07T15:52:48.241Z,98.50
2019-06-07T15:55:16.882Z,98.80
2019-06-07T15:57:45.390Z,98.60
2019-06-07T16:00:14.264Z,98.70
2019-06-07T16:02:42.835Z,98.70
2019-06-07T16:05:11.474Z,99.00
2019-06-07T16:07:40.467Z,98.70
2019-06-07T16:10:08.775Z,98.90
2019-06-07T16:12:38.676Z,98.70
2019-06-07T16:15:07.064Z,98.80
2019-06-07T16:17:37.175Z,98.90
2019-06-07T16:20:05.256Z,98.80
2019-06-07T16:22:33.790Z,99.10
2019-06-07T16:25:02.392Z,99.40
2019-06-07T16:27:30.967Z,99.30
2019-06-07T16:29:59.502Z,99.30
2019-06-07T16:32:28.042Z,99.60
2019-06-07T16:34:56.603Z,99.20
2019-06-07T16:37:25.145Z,99.50
2019-06-07T16:39:53.929Z,99.70
2019-06-07T16:42:22.486Z,99.70
2019-06-07T16:44:51.266Z,99.60
2019-06-07T16:47:19.955Z,99.80
2019-06-07T16:49:49.228Z,99.80
2019-06-07T16:52:17.202Z,99.90
2019-06-07T16:54:45.925Z,99.90
2019-06-07T16:57:14.415Z,99.90
2019-06-07T16:59:46.770Z,99.50
2019-06-07T17:02:11.719Z,99.10
2019-06-07T17:04:41.501Z,99.10
2019-06-07T17:07:08.824Z,98.70
2019-06-07T17:09:38.157Z,98.60
2019-06-07T17:12:05.925Z,98.70
2019-06-07T17:14:34.475Z,98.70
2019-06-07T17:17:02.999Z,98.80
2019-06-07T17:19:31.515Z,99.00
2019-06-07T17:22:00.045Z,99.00
2019-06-07T17:24:28.740Z,98.30
2019-06-07T17:26:57.277Z,97.90
2019-06-07T17:29:25.792Z,98.10
2019-06-07T17:31:54.299Z,98.50
2019-06-07T17:34:22.857Z,98.80
2019-06-07T17:36:51.363Z,98.90
2019-06-07T17:39:19.890Z,99.40
2019-06-07T17:42:00.027Z,99.70
2019-06-07T17:44:17.152Z,99.90
2019-06-07T17:46:45.669Z,99.90
2019-06-07T17:49:14.185Z,99.90
2019-06-07T17:51:44.115Z,99.90
2019-06-07T17:54:11.442Z,99.90
2019-06-07T17:56:39.976Z,99.90
2019-06-07T17:59:08.505Z,99.90
2019-06-07T18:01:41.600Z,99.90
2019-06-07T18:04:06.488Z,99.90
2019-06-07T18:06:35.431Z,99.90
2019-06-07T18:09:04.716Z,99.90
2019-06-07T18:11:33.315Z,99.90
2019-06-07T18:14:10.008Z,99.90
2019-06-07T18:16:30.514Z,99.90
2019-06-07T18:18:59.167Z,99.90
2019-06-07T18:21:27.681Z,99.90
2019-06-07T18:23:56.265Z,99.90
2019-06-07T18:26:24.820Z,99.90
2019-06-07T18:28:54.610Z,99.90
2019-06-07T18:31:21.930Z,99.90
2019-06-07T18:33:50.945Z,99.90
2019-06-07T18:36:19.138Z,99.90
2019-06-07T18:38:48.956Z,99.90
2019-06-07T18:41:16.463Z,99.90
2019-06-07T18:43:44.979Z,99.90
2019-06-07T18:46:13.527Z,99.90
2019-06-07T18:48:42.045Z,99.90
2019-06-07T18:51:22.573Z,99.90
2019-06-07T18:53:51.650Z,99.90
2019-06-07T18:56:19.827Z,99.90
2019-06-07T18:58:49.121Z,99.90
2019-06-07T19:01:23.203Z,99.90
2019-06-07T19:03:52.094Z,99.90
2019-06-07T19:06:20.983Z,99.90
2019-06-07T19:08:53.120Z,99.90
2019-06-07T19:11:18.115Z,99.90
2019-06-07T19:13:46.847Z,99.90
2019-06-07T19:16:15.560Z,99.90
2019-06-07T19:18:44.091Z,99.90
2019-06-07T19:21:12.899Z,99.90
2019-06-07T19:23:41.637Z,99.90
2019-06-07T19:26:10.172Z,99.90
2019-06-07T19:28:38.683Z,99.90
2019-06-07T19:31:07.211Z,99.90
2019-06-07T19:33:48.463Z,99.90
2019-06-07T19:36:04.716Z,99.90
2019-06-07T19:38:33.390Z,99.90
2019-06-07T19:41:17.609Z,99.90
2019-06-07T19:43:30.643Z,99.90
2019-06-07T19:46:00.296Z,99.90
2019-06-07T19:48:27.753Z,99.90
2019-06-07T19:50:56.849Z,99.90
2019-06-07T19:53:24.995Z,99.90
2019-06-07T19:55:53.506Z,99.90
2019-06-07T19:58:22.293Z,99.90
2019-06-07T20:00:50.943Z,99.90
2019-06-07T20:03:19.479Z,99.90
2019-06-07T20:05:48.015Z,99.90
2019-06-07T20:08:17.251Z,99.90
2019-06-07T20:10:45.802Z,99.90
2019-06-07T20:13:14.371Z,99.90
2019-06-07T20:15:42.918Z,99.90
2019-06-07T20:18:11.776Z,99.90
2019-06-07T20:20:40.310Z,99.90
2019-06-07T20:23:09.341Z,99.90
2019-06-07T20:25:37.530Z,99.90
2019-06-07T20:28:06.111Z,99.90
2019-06-07T20:30:34.892Z,99.90
2019-06-07T20:33:03.955Z,99.90
2019-06-07T20:35:32.114Z,99.90
2019-06-07T20:38:01.148Z,99.90
2019-06-07T20:40:29.615Z,99.90
2019-06-07T20:42:59.349Z,99.90
2019-06-07T20:45:33.481Z,99.90
2019-06-07T20:47:55.583Z,99.90
2019-06-07T20:50:24.125Z,99.90
2019-06-07T20:52:52.675Z,99.90
2019-06-07T20:55:21.225Z,99.90
2019-06-07T20:57:49.794Z,99.90
2019-06-07T21:00:22.169Z,99.90
2019-06-07T21:02:47.123Z,99.90
2019-06-07T21:05:15.882Z,99.90
2019-06-07T21:07:44.394Z,99.90
2019-06-07T21:10:13.824Z,99.90
2019-06-07T21:12:42.569Z,99.90
2019-06-07T21:15:14.296Z,99.90
2019-06-07T21:17:40.284Z,99.90
2019-06-07T21:20:13.550Z,99.90
2019-06-07T21:22:37.104Z,99.90
2019-06-07T21:25:07.239Z,99.90
2019-06-07T21:27:34.615Z,99.90
2019-06-07T21:30:03.491Z,99.90
2019-06-07T21:32:31.861Z,99.90
2019-06-07T21:35:01.778Z,99.90
2019-06-07T21:37:29.080Z,99.90
2019-06-07T21:39:57.586Z,99.90
2019-06-07T21:42:26.094Z,99.90
2019-06-07T21:44:54.600Z,99.90
2019-06-07T21:47:23.131Z,99.90
2019-06-07T21:49:51.661Z,99.90
2019-06-07T21:52:20.266Z,99.90
2019-06-07T21:54:48.810Z,99.90
2019-06-07T21:57:17.343Z,99.90
2019-06-07T21:59:45.899Z,99.90
2019-06-07T22:02:14.736Z,99.90
2019-06-07T22:04:43.319Z,99.90
2019-06-07T22:07:11.842Z,99.90
2019-06-07T22:09:40.378Z,99.90
2019-06-07T22:12:10.132Z,99.90
2019-06-07T22:14:38.185Z,99.90
2019-06-07T22:17:08.163Z,99.90
2019-06-07T22:19:35.607Z,99.90
2019-06-07T22:22:05.217Z,99.90
2019-06-07T22:24:32.818Z,99.90
2019-06-07T22:27:01.336Z,99.90
2019-06-07T22:29:29.865Z,99.90
2019-06-07T22:31:58.401Z,99.90
2019-06-07T22:34:26.930Z,99.90
2019-06-07T22:36:55.450Z,99.90
2019-06-07T22:39:24.005Z,99.90
2019-06-07T22:41:52.575Z,99.90
2019-06-07T22:44:21.085Z,99.90
2019-06-07T22:46:49.771Z,99.90
2019-06-07T22:49:19.523Z,99.90
2019-06-07T22:51:46.855Z,99.90
2019-06-07T22:54:16.097Z,99.90
2019-06-07T22:56:48.344Z,99.90
2019-06-07T22:59:18.831Z,99.90
2019-06-07T23:01:45.520Z,99.90
2019-06-07T23:04:14.576Z,99.90
2019-06-07T23:06:42.584Z,99.90
2019-06-07T23:09:11.116Z,99.90
2019-06-07T23:11:39.642Z,99.90
2019-06-07T23:14:09.212Z,99.90
2019-06-07T23:16:54.011Z,99.90
2019-06-07T23:19:05.742Z,99.90
2019-06-07T23:21:34.270Z,99.90
2019-06-07T23:24:02.823Z,99.90
2019-06-07T23:26:31.391Z,99.90
2019-06-07T23:28:59.975Z,99.90
2019-06-07T23:31:28.517Z,99.90
2019-06-07T23:33:57.106Z,99.90
2019-06-07T23:36:25.663Z,99.90
2019-06-07T23:38:54.371Z,99.90
2019-06-07T23:41:22.877Z,99.90
2019-06-07T23:43:51.506Z,99.90
2019-06-07T23:46:20.024Z,99.90
2019-06-07T23:48:48.554Z,99.90
2019-06-07T23:51:17.700Z,99.90
2019-06-07T23:53:45.710Z,99.90
2019-06-07T23:56:14.255Z,99.90
2019-06-07T23:58:42.764Z,99.90
